• Join FlightAware (Why Join?)
  • Login
  • US Flag 
10:00AM EDT


 

Airport Tracker/Info


-or-


 

Live Flight TrackerFlight Track Log ✈ GJS6221 ✈ 18-Jun-2013 ✈ CYUL - KLGA

Flight Track Log - Related Links

Times and Time Zones

All times are in EDT time to prevent confusion due to time zone crossing. See the GJS6221 flight status page for this flight to view local times or setup timezone preferences in your user account.

Time Position Orientation Groundspeed Altitude Reporting Facility
EDT Latitude Longitude Course Direction KTS MPH feet Rate Location/Type
07:24AM 45.4500 -73.7167 189° South 150 173 1,200  Level Montreal Center
07:25AM 45.4000 -73.8000 230° Southwest 210 242 3,800 2,700 Climbing Montreal Center
07:26AM 45.3500 -73.8500 215° Southwest 260 299 6,700 3,360 Climbing Montreal Center
07:27AM 45.2667 -73.9000 203° Southwest 280 322 10,600 3,600 Climbing Montreal Center
07:28AM 45.2000 -73.9000 180° South 290 334 13,900 3,180 Climbing Montreal Center
07:29AM 44.8970 -74.0917 189° South  Level FlightAware Approximate
07:29AM 45.1167 -73.9000 180° South 300 345 17,000  Level Montreal Center
07:30AM 45.0167 -73.9000 180° South 310 357 18,500 1,500 Climbing Montreal Center
07:31AM 44.9333 -73.8833 172° South 330 380 20,100 1,800 Climbing Montreal Center
07:32AM 44.8333 -73.8833 180° South 350 403 22,100 1,920 Climbing Montreal Center
07:33AM 44.7167 -73.9000 186° South 370 426 24,000 2,040 Climbing Montreal Center
07:34AM 44.6167 -73.8833 173° South 380 437 26,200 1,800 Climbing Montreal Center
07:35AM 44.5000 -73.8833 180° South 390 449 27,700 900 Climbing Montreal Center
07:36AM 44.3833 -73.8667 174° South 410 472 28,000 120 Climbing Montreal Center
07:37AM 44.2794 -73.8725 182° South 413 475 28,000  Level Boston Center
07:38AM 44.1692 -73.8728 180° South 413 475 28,000  Level Boston Center
07:39AM 44.0525 -73.8669 178° South 413 475 28,000  Level Boston Center
07:40AM 43.9381 -73.8586 177° South 413 475 28,000 -60 Level Boston Center
07:41AM 43.8131 -73.8500 177° South 413 475 27,900 -660 Descending Boston Center
07:42AM 43.6983 -73.8472 179° South 413 475 26,700 -1,440 Descending Boston Center
07:43AM 43.6006 -73.8419 178° South 413 475 25,100 -1,020 Descending Boston Center
07:44AM 43.4903 -73.8367 178° South 407 468 24,700 -600 Descending Boston Center
07:45AM 43.3714 -73.8311 178° South 401 461 24,000 -360 Descending Boston Center
07:46AM 43.2653 -73.8286 179° South 396 456 24,000 -60 Level Boston Center
07:47AM 43.1589 -73.8206 177° South 391 450 23,900 -540 Descending Boston Center
07:48AM 43.0506 -73.8181 179° South 391 450 22,900 -900 Descending Boston Center
07:49AM 42.9236 -73.8125 178° South 381 438 22,000 -480 Descending Boston Center
07:50AM 42.8194 -73.8131 180° South 381 438 22,000 -120 Level Boston Center
07:51AM 42.7194 -73.7994 174° South 374 430 21,800 -360 Descending Boston Center
07:52AM 42.6133 -73.7803 172° South 379 436 21,300 -480 Descending Boston Center
07:53AM 42.5219 -73.7583 170° South 379 436 20,900 -480 Descending Boston Center
07:54AM 42.4200 -73.7394 172° South 379 436 20,400 -540 Descending Boston Center
07:55AM 42.3181 -73.7175 171° South 379 436 19,900 -540 Descending Boston Center
07:56AM 42.2161 -73.7156 179° South 368 423 19,400 -480 Descending Boston Center
07:57AM 42.1178 -73.7358 189° South 368 423 19,000 -240 Descending Boston Center
07:58AM 42.0092 -73.7561 188° South 363 418 19,000  Level Boston Center
07:59AM 41.9214 -73.7739 189° South 363 418 19,000 -840 Level Boston Center
08:00AM 41.8108 -73.7936 188° South 368 423 17,400 -1,800 Descending Boston Center
08:01AM 41.7272 -73.8114 189° South 358 412 15,500 -2,100 Descending Boston Center
08:02AM 41.6269 -73.8342 190° South 342 394 13,300 -1,920 Descending Boston Center
08:03AM 41.5500 -73.8500 189° South 306 352 11,900 -1,380 Descending New York TRACON
08:04AM 41.4667 -73.8667 189° South 287 330 10,700 -1,320 Descending New York TRACON
08:05AM 41.4000 -73.8500 169° South 297 342 9,500 -900 Descending New York TRACON
08:06AM 41.3333 -73.7833 143° Southeast 285 328 9,000 -300 Descending New York TRACON
08:07AM 41.2833 -73.7333 143° Southeast 254 292 9,000 -120 Level New York TRACON
08:08AM 41.2167 -73.6833 151° Southeast 249 287 8,800 -660 Descending New York TRACON
08:09AM 41.1667 -73.6333 143° Southeast 255 293 7,700 -1,080 Descending New York TRACON
08:10AM 41.1167 -73.5500 129° Southeast 251 289 6,700 -1,020 Descending New York TRACON
08:11AM 41.0667 -73.5167 153° Southeast 248 285 5,700 -1,020 Descending New York TRACON
08:12AM 41.0500 -73.5833 252° West 217 250 4,700 -900 Descending New York TRACON
08:13AM 41.0333 -73.6500 252° West 221 254 4,000 -360 Descending New York TRACON
08:14AM 41.0000 -73.7333 242° Southwest 216 249 4,000  Level New York TRACON
08:15AM 40.9667 -73.8000 237° Southwest 222 255 4,000 -300 Level New York TRACON
08:16AM 40.9000 -73.8500 210° Southwest 263 303 3,500 -540 Descending New York TRACON
08:17AM 40.8500 -73.9167 225° Southwest 254 292 3,000 -300 Descending New York TRACON
08:18AM 40.8000 -73.9667 217° Southwest 254 292 3,000  Level New York TRACON
08:19AM 40.7333 -74.0000 201° Southwest 252 290 3,000  Level New York TRACON
08:20AM 40.6833 -74.0000 180° South 204 235 3,000 -540 Level New York TRACON
08:21AM 40.6833 -73.9500 90° East 191 220 2,000 -1,020 Descending New York TRACON
08:22AM 40.7333 -73.9167 27° Northeast 141 162 1,000 -840 Descending New York TRACON
08:23AM 40.7667 -73.8833 37° Northeast 129 148 300 -720 Descending New York TRACON